EICKEIDL

Guest
Details From EICK - Cork
To EIDL - Donegal
Flight Number -
Tags generated
Created
Modified
Stats Distance 196 nm / 363 km
Max Altitude 22,900 ft / 6,980 m
Waypoints 3
Social Downloads 0
Likes 0
Share VATSIM

Download

Looking for another format? Having issues loading an existing format? Contact us
Advertisement - Login to hide

Notes

Basic altitude profile: - Ascent Rate: 2500ft/min - Ascent Speed: 250kts - Cruise Altitude: 35000ft - Cruise Speed: 420kts - Descent Rate: 1500ft/min - Descent Speed: 250kts Options: - Use NATs: yes - Use PACOTS: yes - Use low airways: yes - Use high airways: yes

Route

EICK CRN EIDL

ID Type Via Altitude Latitude Longitude Leg Dist Tot Dist Heading (true) Name
O EICK APT - 0 ft / 0 m 51.84261˚ -8.48906˚ - 0 nm - Cork
CRN NDB - 22,900 ft / 6,980 m 53.29941˚ -8.94088˚ 89 nm 89 nm 350° / 349° GALWAY NDB
O EIDL APT - 0 ft / 0 m 55.04420˚ -8.34104˚ 106 nm 195 nm 11° / 12° Donegal

Altitude Profile

Advertisement - Login to hide

Weather


0- 5 10 15 20 25 30 35+ Temperature / ° C

Clouds and Precipitation
Forecast for 2017-12-16 18:00 UTC. Updated an hour ago

Ground ~20,000 ft ~40,000 ft Winds

EICK

Details ICAO EICK (ORK)
Name Cork
Region Ireland
Timezone Europe/Dublin (UTC+0.0)
Stats Elevation 502 ft / 153 m (AMSL)
Location 51.842605° -8.489056°
Runways 2
Magnetic Variation 3.611° W

METAR

EICK 161430Z 27011KT 9999 SCT023 SCT040 BKN080 08/05 Q1023 NOSIG

Decode

TAF

TAF EICK 161100Z 1612/1712 27010KT 9999 FEW015 BKN030 BECMG 1616/1618 24006KT BECMG 1618/1621 21005KT BECMG 1700/1703 22010KT BECMG 1703/1705 6000 -RA BKN010 BECMG 1705/1707 4000 -RA BR BKN005 TEMPO 1708/1712 0800 RADZ FG BKN001 BECMG 1709/1712 25008KT

Decode

Departure Runways

ID Width Length Bearing (true) Bearing (mag) Surface Threshold Offset Overrun Length
07 148 ft / 45 m 4,281 ft / 1,305 m 62.55° 66.16° Concrete 0 ft / 0 m 0 ft / 0 m
17 148 ft / 45 m 6,992 ft / 2,131 m 159.93° 163.54° Asphalt 0 ft / 0 m 115 ft / 35 m
25 148 ft / 45 m 4,281 ft / 1,305 m 242.57° 246.18° Concrete 0 ft / 0 m 39 ft / 12 m
35 148 ft / 45 m 6,992 ft / 2,131 m 339.94° 343.55° Asphalt 0 ft / 0 m 0 ft / 0 m

EIDL

Details ICAO EIDL (CFN)
Name Donegal
Region Ireland
Timezone Unknown (UTC+0.0)
Stats Elevation 29 ft / 9 m (AMSL)
Location 55.044196° -8.341036°
Runways 1
Magnetic Variation 4.207° W

METAR

EIDL 161430Z 28010KT 9999 FEW029 BKN034 09/06 Q1020

Decode

TAF

Not found

Destination Runways

ID Width Length Bearing (true) Bearing (mag) Surface Threshold Offset Overrun Length
03 98 ft / 30 m 4,906 ft / 1,495 m 20.15° 24.36° Asphalt 656 ft / 200 m 0 ft / 0 m
21 98 ft / 30 m 4,906 ft / 1,495 m 200.16° 204.37° Asphalt 656 ft / 200 m 0 ft / 0 m

Approach Navaids

Runway Type Ident Frequency Range Bearing (true) Bearing (mag) Slope Elevation
21 Localiser IFN 110.30 MHz 18 nm / 33 km 200.16° 204.37° - 29 ft / 9 m (AMSL)
21 DME IFN 110.30 MHz 18 nm / 33 km - - - 33 ft / 10 m (AMSL)

Popular Alternatives